createdAt,value
2022-11-22T00:02:57.399Z,77.32
2022-11-22T00:06:04.248Z,77.24
2022-11-22T00:09:07.781Z,77.37
2022-11-22T00:12:10.014Z,77.37
2022-11-22T00:15:12.111Z,77.47
2022-11-22T00:18:13.592Z,77.40
2022-11-22T00:21:15.195Z,77.13
2022-11-22T00:24:16.736Z,77.01
2022-11-22T00:27:20.002Z,77.09
2022-11-22T00:30:21.571Z,77.18
2022-11-22T00:33:23.196Z,77.00
2022-11-22T00:36:24.825Z,76.99
2022-11-22T00:39:26.267Z,76.99
2022-11-22T00:42:28.224Z,76.84
2022-11-22T00:45:29.780Z,77.27
2022-11-22T00:48:31.369Z,77.37
2022-11-22T00:51:33.389Z,77.31
2022-11-22T00:54:35.160Z,77.19
2022-11-22T00:57:36.668Z,77.33
2022-11-22T01:00:38.268Z,77.57
2022-11-22T01:03:39.881Z,77.32
2022-11-22T01:06:41.390Z,77.49
2022-11-22T01:09:42.833Z,77.82
2022-11-22T01:12:44.480Z,77.54
2022-11-22T01:15:46.032Z,77.53
2022-11-22T01:18:47.582Z,77.94
2022-11-22T01:21:49.042Z,77.65
2022-11-22T01:24:50.468Z,77.96
2022-11-22T01:27:51.991Z,77.96
2022-11-22T01:30:55.135Z,77.71
2022-11-22T01:33:58.363Z,77.91
2022-11-22T01:37:00.068Z,77.78
2022-11-22T01:40:01.855Z,78.09
2022-11-22T01:43:03.949Z,78.01
2022-11-22T01:46:37.549Z,78.06
2022-11-22T01:49:54.656Z,78.26
2022-11-22T01:53:02.764Z,78.28
2022-11-22T01:56:09.301Z,77.98
2022-11-22T01:59:15.945Z,78.12
2022-11-22T02:02:17.772Z,77.87
2022-11-22T02:05:23.486Z,77.72
2022-11-22T02:08:35.304Z,77.95
2022-11-22T02:11:40.712Z,78.21
2022-11-22T02:14:43.152Z,78.26
2022-11-22T02:17:44.740Z,78.48
2022-11-22T02:20:46.749Z,78.22
2022-11-22T02:24:12.871Z,78.27
2022-11-22T02:27:14.381Z,78.22
2022-11-22T02:30:16.638Z,78.29
2022-11-22T02:33:18.922Z,79.01
2022-11-22T02:36:20.485Z,78.76
2022-11-22T02:39:28.964Z,79.02
2022-11-22T02:42:30.822Z,79.18
2022-11-22T02:45:32.367Z,79.10
2022-11-22T02:48:33.963Z,78.81
2022-11-22T02:51:36.322Z,78.94
2022-11-22T02:54:41.480Z,78.76
2022-11-22T02:57:42.999Z,79.15
2022-11-22T03:00:44.518Z,79.28
2022-11-22T03:03:46.056Z,79.09
2022-11-22T03:06:47.513Z,79.13
2022-11-22T03:09:48.987Z,79.15
2022-11-22T03:12:51.214Z,79.54
2022-11-22T03:15:52.733Z,79.95
2022-11-22T03:18:54.185Z,79.97
2022-11-22T03:21:55.731Z,79.94
2022-11-22T03:24:57.229Z,79.87
2022-11-22T03:27:58.705Z,79.89
2022-11-22T03:31:00.245Z,80.22
2022-11-22T03:34:01.820Z,80.37
2022-11-22T03:37:03.308Z,80.38
2022-11-22T03:40:05.537Z,80.44
2022-11-22T03:43:07.244Z,80.11
2022-11-22T03:46:16.260Z,80.40
2022-11-22T03:49:20.035Z,80.62
2022-11-22T03:52:21.740Z,80.54
2022-11-22T03:55:23.272Z,80.72
2022-11-22T03:58:24.688Z,80.98
2022-11-22T04:01:26.196Z,80.82
2022-11-22T04:04:27.651Z,81.12
2022-11-22T04:07:29.270Z,80.77
2022-11-22T04:10:30.829Z,81.03
2022-11-22T04:13:50.797Z,80.64
2022-11-22T04:16:52.275Z,80.87
2022-11-22T04:20:19.507Z,80.54
2022-11-22T04:23:22.923Z,80.54
2022-11-22T04:26:24.406Z,80.84
2022-11-22T04:29:25.973Z,80.68
2022-11-22T04:32:45.940Z,80.58
2022-11-22T04:35:48.586Z,80.40
2022-11-22T04:38:50.123Z,80.66
2022-11-22T04:42:15.070Z,80.97
2022-11-22T04:45:16.581Z,80.71
2022-11-22T04:48:19.221Z,80.64
2022-11-22T04:51:39.286Z,80.68
2022-11-22T04:54:40.729Z,81.25
2022-11-22T04:57:43.785Z,80.93
2022-11-22T05:00:47.027Z,81.01
2022-11-22T05:03:48.574Z,80.93
2022-11-22T05:06:50.996Z,80.85
2022-11-22T05:09:52.666Z,80.97
2022-11-22T05:12:55.400Z,81.00
2022-11-22T05:15:58.122Z,80.92
2022-11-22T05:19:26.047Z,80.88
2022-11-22T05:22:46.326Z,80.77
2022-11-22T05:25:47.921Z,80.60
2022-11-22T05:28:49.794Z,80.77
2022-11-22T05:31:51.617Z,80.70
2022-11-22T05:34:53.236Z,80.62
2022-11-22T05:37:58.734Z,80.78
2022-11-22T05:41:02.595Z,81.11
2022-11-22T05:44:04.111Z,81.11
2022-11-22T05:47:05.570Z,81.02
2022-11-22T05:50:07.890Z,81.36
2022-11-22T05:53:09.383Z,81.35
2022-11-22T05:56:14.003Z,81.34
2022-11-22T05:59:15.668Z,81.33
2022-11-22T06:02:19.095Z,81.31
2022-11-22T06:05:20.639Z,81.50
2022-11-22T06:08:22.176Z,81.79
2022-11-22T06:11:25.571Z,81.49
2022-11-22T06:14:27.079Z,81.78
2022-11-22T06:17:28.561Z,81.66
2022-11-22T06:20:30.064Z,81.91
2022-11-22T06:23:33.975Z,81.92
2022-11-22T06:26:39.457Z,81.76
2022-11-22T06:29:42.198Z,82.27
2022-11-22T06:32:43.665Z,82.03
2022-11-22T06:35:45.317Z,81.86
2022-11-22T06:38:47.510Z,82.25
2022-11-22T06:41:48.992Z,82.36
2022-11-22T06:44:50.744Z,82.09
2022-11-22T06:47:53.000Z,82.06
2022-11-22T06:51:00.810Z,81.88
2022-11-22T06:54:02.426Z,82.19
2022-11-22T06:57:03.967Z,82.08
2022-11-22T07:00:05.975Z,82.09
2022-11-22T07:03:07.452Z,82.28
2022-11-22T07:06:13.173Z,82.39
2022-11-22T07:09:14.736Z,82.65
2022-11-22T07:12:16.259Z,82.58
2022-11-22T07:15:17.650Z,82.40
2022-11-22T07:18:19.095Z,82.35
2022-11-22T07:21:24.515Z,82.41
2022-11-22T07:24:26.326Z,82.20
2022-11-22T07:27:27.848Z,82.37
2022-11-22T07:30:29.321Z,82.30
2022-11-22T07:33:30.845Z,82.58
2022-11-22T07:36:32.379Z,82.37
2022-11-22T07:39:33.816Z,82.13
2022-11-22T07:42:35.367Z,82.25
2022-11-22T07:45:36.923Z,82.60
2022-11-22T07:48:38.444Z,82.67
2022-11-22T07:51:39.885Z,82.41
2022-11-22T07:54:43.047Z,82.84
2022-11-22T07:57:47.710Z,82.64
2022-11-22T08:00:51.297Z,82.58
2022-11-22T08:03:52.796Z,82.22
2022-11-22T08:06:54.358Z,82.29
2022-11-22T08:09:55.796Z,82.40
2022-11-22T08:13:00.287Z,82.24
2022-11-22T08:16:09.257Z,82.56
2022-11-22T08:19:15.430Z,82.13
2022-11-22T08:22:16.902Z,82.11
2022-11-22T08:25:18.524Z,82.50
2022-11-22T08:28:20.014Z,82.50
2022-11-22T08:31:21.512Z,82.05
2022-11-22T08:34:23.126Z,82.15
2022-11-22T08:37:26.452Z,82.03
2022-11-22T08:40:28.773Z,82.24
2022-11-22T08:43:31.131Z,82.26
2022-11-22T08:46:32.774Z,82.14
2022-11-22T08:49:34.278Z,81.89
2022-11-22T08:52:35.816Z,81.79
2022-11-22T08:55:37.339Z,82.00
2022-11-22T08:58:38.938Z,81.78
2022-11-22T09:01:40.565Z,81.93
2022-11-22T09:04:42.238Z,81.60
2022-11-22T09:11:14.670Z,81.82
2022-11-22T09:14:16.276Z,81.65
2022-11-22T09:17:18.417Z,81.80
2022-11-22T09:20:20.246Z,81.66
2022-11-22T09:23:21.767Z,82.01
2022-11-22T09:26:26.673Z,82.00
2022-11-22T09:29:28.421Z,81.89
2022-11-22T09:32:33.642Z,81.86
2022-11-22T09:35:35.562Z,81.84
2022-11-22T09:38:37.499Z,81.76
2022-11-22T09:41:57.815Z,81.78
2022-11-22T09:45:18.681Z,81.66
2022-11-22T09:49:14.925Z,81.75
2022-11-22T09:52:21.981Z,81.72
2022-11-22T09:55:34.873Z,81.52
2022-11-22T09:58:42.621Z,81.71
2022-11-22T10:02:07.272Z,81.68
2022-11-22T10:05:25.672Z,81.76
2022-11-22T10:08:45.394Z,81.83
2022-11-22T10:12:00.877Z,81.76
2022-11-22T10:15:40.244Z,81.83
2022-11-22T10:19:20.290Z,81.98
2022-11-22T10:22:22.055Z,81.56
2022-11-22T10:25:35.903Z,81.72
2022-11-22T10:29:03.663Z,81.53
2022-11-22T10:32:16.734Z,81.55
2022-11-22T10:35:39.777Z,81.53
2022-11-22T10:38:59.642Z,81.62
2022-11-22T10:42:08.134Z,81.73
2022-11-22T10:45:20.498Z,81.58
2022-11-22T10:48:47.699Z,81.35
2022-11-22T10:52:31.219Z,81.72
2022-11-22T10:56:03.636Z,81.37
2022-11-22T10:59:23.229Z,81.27
2022-11-22T11:02:41.041Z,81.34
2022-11-22T11:06:21.702Z,81.65
2022-11-22T11:10:10.323Z,81.26
2022-11-22T11:13:02.643Z,81.34
2022-11-22T11:16:09.436Z,81.16
2022-11-22T11:19:10.888Z,81.22
2022-11-22T11:22:36.052Z,81.27
2022-11-22T11:25:42.853Z,81.15
2022-11-22T11:28:45.166Z,81.08
2022-11-22T11:32:07.447Z,81.20
2022-11-22T11:35:13.732Z,81.07
2022-11-22T11:38:51.926Z,81.12
2022-11-22T11:41:53.694Z,81.16
2022-11-22T11:45:24.486Z,81.24
2022-11-22T11:48:40.640Z,81.19
2022-11-22T11:51:55.901Z,81.06
2022-11-22T11:55:00.945Z,80.97
2022-11-22T11:58:20.265Z,80.92
2022-11-22T12:01:23.207Z,80.91
2022-11-22T12:04:28.378Z,80.71
2022-11-22T12:07:33.069Z,81.03
2022-11-22T12:10:49.470Z,80.68
2022-11-22T12:14:18.874Z,80.74
2022-11-22T12:17:25.825Z,80.66
2022-11-22T12:20:38.931Z,80.61
2022-11-22T12:27:25.870Z,80.22
2022-11-22T12:30:28.014Z,80.50
2022-11-22T12:33:37.448Z,80.31
2022-11-22T12:36:48.885Z,80.36
2022-11-22T12:39:55.034Z,80.07
2022-11-22T12:43:07.729Z,80.17
2022-11-22T12:46:16.598Z,80.41
2022-11-22T12:48:23.675Z,80.55
2022-11-22T12:49:40.920Z,80.29
2022-11-22T12:52:56.204Z,80.34
2022-11-22T12:56:15.069Z,80.23
2022-11-22T12:59:38.144Z,80.11
2022-11-22T13:03:08.107Z,80.25
2022-11-22T13:06:19.773Z,80.10
2022-11-22T13:09:32.969Z,80.12
2022-11-22T13:12:38.664Z,80.08
2022-11-22T13:15:40.546Z,80.01
2022-11-22T13:18:50.843Z,80.16
2022-11-22T13:22:14.432Z,80.09
2022-11-22T13:25:34.930Z,80.06
2022-11-22T13:28:40.023Z,80.24
2022-11-22T13:32:04.289Z,80.34
2022-11-22T13:35:11.984Z,80.20
2022-11-22T13:38:18.312Z,80.31
2022-11-22T13:41:24.171Z,80.26
2022-11-22T13:44:31.972Z,80.39
2022-11-22T13:47:54.159Z,80.39
2022-11-22T13:51:10.737Z,80.21
2022-11-22T13:54:47.208Z,80.41
2022-11-22T13:57:48.818Z,80.75
2022-11-22T14:00:59.303Z,80.42
2022-11-22T14:04:16.220Z,80.54
2022-11-22T14:07:32.470Z,80.29
2022-11-22T14:10:59.650Z,80.34
2022-11-22T14:14:18.584Z,80.23
2022-11-22T14:17:43.086Z,80.36
2022-11-22T14:21:02.991Z,80.35
2022-11-22T14:24:10.452Z,80.37
2022-11-22T14:27:24.406Z,80.52
2022-11-22T14:30:47.439Z,80.17
2022-11-22T14:34:13.930Z,80.31
2022-11-22T14:37:15.462Z,80.27
2022-11-22T14:40:31.293Z,80.25
2022-11-22T14:43:38.411Z,80.54
2022-11-22T14:46:53.152Z,80.46
2022-11-22T14:49:56.745Z,80.44
2022-11-22T14:53:06.814Z,80.59
2022-11-22T14:56:21.086Z,80.87
2022-11-22T14:59:40.914Z,80.69
2022-11-22T15:03:15.981Z,80.53
2022-11-22T15:09:21.462Z,81.05
2022-11-22T15:10:40.676Z,81.19
2022-11-22T15:14:33.536Z,80.82
2022-11-22T15:59:28.594Z,81.64
2022-11-22T16:02:32.017Z,81.66
2022-11-22T16:06:07.516Z,81.79
2022-11-22T16:09:07.216Z,81.78
2022-11-22T16:12:29.043Z,81.75
2022-11-22T16:15:39.294Z,81.86
2022-11-22T16:18:46.589Z,82.03
2022-11-22T16:22:02.847Z,82.01
2022-11-22T16:25:43.754Z,82.00
2022-11-22T16:29:04.014Z,82.05
2022-11-22T16:36:33.884Z,82.52
2022-11-22T16:39:36.180Z,82.43
2022-11-22T16:42:39.000Z,82.55
2022-11-22T16:45:44.486Z,82.39
2022-11-22T16:48:52.418Z,82.49
2022-11-22T16:51:59.746Z,82.40
2022-11-22T16:55:19.835Z,82.35
2022-11-22T16:58:25.415Z,82.28
2022-11-22T17:01:33.769Z,82.32
2022-11-22T17:04:41.671Z,82.29
2022-11-22T17:07:43.484Z,82.29
2022-11-22T17:10:49.900Z,82.46
2022-11-22T17:13:52.573Z,82.12
2022-11-22T17:17:04.049Z,82.15
2022-11-22T17:20:07.787Z,82.14
2022-11-22T17:23:15.422Z,82.20
2022-11-22T17:26:23.660Z,82.30
2022-11-22T17:29:49.162Z,82.19
2022-11-22T17:32:47.689Z,82.21
2022-11-22T17:35:53.621Z,82.00
2022-11-22T17:38:56.141Z,81.99
2022-11-22T17:41:57.776Z,81.79
2022-11-22T17:44:59.561Z,81.78
2022-11-22T17:48:02.617Z,81.76
2022-11-22T17:51:09.827Z,81.62
2022-11-22T17:54:12.158Z,81.61
2022-11-22T17:57:16.815Z,81.60
2022-11-22T18:00:19.664Z,81.77
2022-11-22T18:03:21.686Z,81.53
2022-11-22T18:06:26.167Z,81.52
2022-11-22T18:09:34.215Z,81.48
2022-11-22T18:12:42.199Z,81.50
2022-11-22T18:16:03.245Z,81.71
2022-11-22T18:19:12.635Z,81.43
2022-11-22T18:22:14.437Z,81.51
2022-11-22T18:25:16.256Z,81.46
2022-11-22T18:28:18.355Z,81.46
2022-11-22T18:31:53.796Z,81.44
2022-11-22T18:34:56.177Z,81.42
2022-11-22T18:38:05.683Z,81.44
2022-11-22T18:41:10.262Z,81.44
2022-11-22T18:44:11.959Z,81.32
2022-11-22T18:47:13.747Z,81.43
2022-11-22T18:53:17.832Z,81.30
2022-11-22T19:26:43.642Z,80.85
2022-11-22T19:30:09.061Z,81.06
2022-11-22T19:33:46.915Z,80.96
2022-11-22T19:37:06.648Z,81.02
2022-11-22T19:44:09.547Z,81.15
2022-11-22T19:47:22.258Z,81.05
2022-11-22T19:50:32.694Z,80.96
2022-11-22T19:54:04.885Z,81.03
2022-11-22T19:57:19.433Z,81.21
2022-11-22T20:00:58.675Z,81.08
2022-11-22T20:04:37.454Z,81.02
2022-11-22T20:08:12.643Z,80.99
2022-11-22T20:11:55.006Z,80.97
2022-11-22T20:19:14.688Z,80.82
2022-11-22T20:22:53.919Z,81.01
2022-11-22T20:26:16.138Z,80.92
2022-11-22T20:33:38.096Z,80.82
2022-11-22T20:37:23.085Z,80.84
2022-11-22T20:41:35.082Z,80.72
2022-11-22T20:44:48.976Z,80.80
2022-11-22T20:48:09.988Z,80.71
2022-11-22T20:51:56.962Z,80.58
2022-11-22T20:55:28.567Z,80.66
2022-11-22T20:58:42.315Z,80.49
2022-11-22T21:01:55.070Z,80.55
2022-11-22T21:05:06.839Z,80.45
2022-11-22T21:08:11.410Z,80.51
2022-11-22T21:11:31.151Z,80.44
2022-11-22T21:14:43.138Z,80.43
2022-11-22T21:18:24.135Z,80.40
2022-11-22T21:21:37.422Z,80.31
2022-11-22T21:24:43.365Z,80.41
2022-11-22T21:28:08.688Z,80.33
2022-11-22T21:31:15.459Z,80.21
2022-11-22T21:34:18.547Z,80.19
2022-11-22T21:37:27.704Z,80.18
2022-11-22T21:40:33.084Z,80.32
2022-11-22T21:43:40.375Z,80.20
2022-11-22T21:46:44.157Z,80.25
2022-11-22T21:49:53.865Z,80.24
2022-11-22T21:52:59.058Z,80.18
2022-11-22T21:56:03.560Z,80.00
2022-11-22T21:59:06.501Z,80.17
2022-11-22T22:02:10.037Z,80.13
2022-11-22T22:06:15.379Z,80.12
2022-11-22T22:09:18.256Z,80.08
2022-11-22T22:12:21.131Z,79.94
2022-11-22T22:15:24.817Z,79.96
2022-11-22T22:18:36.681Z,80.08
2022-11-22T22:21:39.503Z,79.98
2022-11-22T22:24:42.610Z,79.91
2022-11-22T22:27:45.640Z,79.91
2022-11-22T22:30:48.431Z,79.91
2022-11-22T22:33:54.598Z,79.92
2022-11-22T22:36:57.542Z,79.87
2022-11-22T22:40:00.349Z,79.88
2022-11-22T22:43:03.167Z,79.92
2022-11-22T22:46:15.293Z,79.82
2022-11-22T22:49:18.181Z,79.77
2022-11-22T22:52:21.020Z,79.80
2022-11-22T22:55:23.854Z,79.75
2022-11-22T22:58:30.631Z,79.92
2022-11-22T23:01:33.524Z,79.84
2022-11-22T23:04:37.604Z,79.86
2022-11-22T23:07:43.871Z,79.86
2022-11-22T23:10:46.917Z,79.82
2022-11-22T23:13:49.768Z,79.85
2022-11-22T23:16:57.416Z,79.81
2022-11-22T23:20:01.322Z,79.95
2022-11-22T23:23:04.405Z,79.90
2022-11-22T23:26:10.874Z,79.88
2022-11-22T23:29:14.920Z,79.88
2022-11-22T23:32:17.769Z,80.06
2022-11-22T23:35:20.738Z,79.92
2022-11-22T23:38:23.540Z,79.89
2022-11-22T23:41:26.519Z,79.81
2022-11-22T23:44:29.421Z,79.81
2022-11-22T23:47:32.249Z,79.80
2022-11-22T23:50:37.451Z,79.94
2022-11-22T23:53:40.956Z,79.98
2022-11-22T23:56:43.934Z,79.91
2022-11-22T23:59:46.898Z,79.96
